Terminal Aerodrome Forecast
Issued by NWS

Home | Current Version | Previous Version | Text Only | Print | Product List | Glossary On
Versions: 1 2 3 4 5 6 7 8 9 10 11 12
000
FTUS46 KPDT 071731
TAFPSC
TAF
KPSC 071731Z 0718/0818 26006KT P6SM FEW300
     FM080300 22005KT P6SM SCT300
     FM081500 VRB05KT P6SM FEW100 SCT250=

USA.gov is the U.S. government's official web portal to all federal, state and local government web resources and services.